RYR2265 GMAD-EFHK
Flight info
| Callsign | RYR2265 |
|---|---|
| Flight time | N/A |
| Altitude | 32000 |
| Route | OLOMA UG850 MAK UB11 MABAP UR722 SAK UG5 KORIS L27 VJF N10 HIJ/N0450F340 Z230 TLD N858 ABRIX DCT ETPAR DCT BOKNO UN858 VANAD UN874 ARSAF DCT SULEX DCT CMB DCT ADUTO N873 SPY/N0451F350 N873 JUIST DCT DOSUR P729 TALSA Z702 AMTOT DCT BEDOS DCT ROGMI DCT EVADI Y370 DIVAM |
| Aircraft | B738/M-SDE2E3FGHIRWXY/LB1 |
Departure
| Time | 2026-05-09 02:17 |
|---|---|
| Airport | Al Massira Airport (GMAD) |
Arrival
| Time | N/A |
|---|---|
| Airport | Helsinki Vantaa Airport (EFHK) |
| Time | Latitude | Longitude | Altitude | Speed | Heading |
|---|---|---|---|---|---|
| 2026-05-09 01:58 | 30.32942 | -9.40883 | 260 ft | 0 kts | 0° |
| 2026-05-09 02:08 | 30.32931 | -9.40883 | 260 ft | 2 kts | 0° |
| 2026-05-09 02:08 | 30.32913 | -9.40883 | 260 ft | 3 kts | 0° |
| 2026-05-09 02:08 | 30.32893 | -9.40883 | 260 ft | 3 kts | 0° |
| 2026-05-09 02:08 | 30.32872 | -9.40883 | 260 ft | 3 kts | 0° |
| 2026-05-09 02:09 | 30.32852 | -9.40883 | 260 ft | 3 kts | 0° |
| 2026-05-09 02:09 | 30.32846 | -9.40883 | 260 ft | 0 kts | 0° |
| 2026-05-09 02:10 | 30.32871 | -9.40859 | 260 ft | 6 kts | 81° |
| 2026-05-09 02:10 | 30.32860 | -9.40820 | 260 ft | 5 kts | 111° |
| 2026-05-09 02:10 | 30.32851 | -9.40770 | 260 ft | 7 kts | 92° |
| 2026-05-09 02:10 | 30.32848 | -9.40701 | 260 ft | 10 kts | 101° |
| 2026-05-09 02:11 | 30.32810 | -9.40628 | 260 ft | 12 kts | 142° |
| 2026-05-09 02:11 | 30.32725 | -9.40606 | 260 ft | 14 kts | 180° |
| 2026-05-09 02:11 | 30.32621 | -9.40606 | 260 ft | 16 kts | 180° |
| 2026-05-09 02:11 | 30.32499 | -9.40606 | 260 ft | 19 kts | 181° |
| 2026-05-09 02:12 | 30.32438 | -9.40554 | 260 ft | 11 kts | 104° |
| 2026-05-09 02:12 | 30.32435 | -9.40453 | 260 ft | 14 kts | 91° |
| 2026-05-09 02:12 | 30.32434 | -9.40330 | 260 ft | 16 kts | 91° |
| 2026-05-09 02:12 | 30.32427 | -9.40188 | 260 ft | 19 kts | 93° |
| 2026-05-09 02:13 | 30.32425 | -9.40028 | 260 ft | 21 kts | 92° |
| 2026-05-09 02:13 | 30.32419 | -9.39849 | 260 ft | 23 kts | 91° |
| 2026-05-09 02:13 | 30.32416 | -9.39651 | 260 ft | 26 kts | 92° |
| 2026-05-09 02:13 | 30.32410 | -9.39496 | 260 ft | 14 kts | 91° |
| 2026-05-09 02:14 | 30.32371 | -9.39431 | 260 ft | 10 kts | 175° |
| 2026-05-09 02:14 | 30.32298 | -9.39462 | 260 ft | 12 kts | 211° |
| 2026-05-09 02:14 | 30.32233 | -9.39537 | 260 ft | 14 kts | 243° |
| 2026-05-09 02:14 | 30.32223 | -9.39596 | 260 ft | 0 kts | 270° |
| 2026-05-09 02:15 | 30.32224 | -9.39611 | 260 ft | 7 kts | 270° |
| 2026-05-09 02:15 | 30.32227 | -9.39739 | 260 ft | 26 kts | 278° |
| 2026-05-09 02:15 | 30.32228 | -9.39832 | 260 ft | 0 kts | 251° |
| 2026-05-09 02:15 | 30.32227 | -9.39834 | 260 ft | 0 kts | 249° |
| 2026-05-09 02:16 | 30.32224 | -9.39844 | 260 ft | 7 kts | 248° |
| 2026-05-09 02:16 | 30.32230 | -9.40054 | 260 ft | 57 kts | 266° |
| 2026-05-09 02:16 | 30.32244 | -9.40828 | 261 ft | 135 kts | 269° |
| 2026-05-09 02:17 | 30.32292 | -9.42200 | 367 ft | 200 kts | 270° |
| 2026-05-09 02:17 | 30.32309 | -9.43955 | 877 ft | 245 kts | 269° |
| 2026-05-09 02:17 | 30.32227 | -9.46043 | 1524 ft | 252 kts | 265° |
| 2026-05-09 02:17 | 30.32041 | -9.48065 | 1882 ft | 264 kts | 262° |
| 2026-05-09 02:18 | 30.31714 | -9.50255 | 2190 ft | 284 kts | 258° |
| 2026-05-09 02:18 | 30.31251 | -9.52481 | 2477 ft | 289 kts | 254° |
| 2026-05-09 02:18 | 30.30634 | -9.54752 | 2779 ft | 302 kts | 250° |
| 2026-05-09 02:18 | 30.29853 | -9.57041 | 3247 ft | 311 kts | 246° |
| 2026-05-09 02:19 | 30.28910 | -9.59292 | 3918 ft | 310 kts | 242° |
| 2026-05-09 02:19 | 30.27820 | -9.61416 | 4732 ft | 305 kts | 238° |
| 2026-05-09 02:19 | 30.26592 | -9.63370 | 5608 ft | 297 kts | 233° |
| 2026-05-09 02:19 | 30.25238 | -9.65122 | 6474 ft | 289 kts | 228° |
| 2026-05-09 02:20 | 30.23771 | -9.66669 | 7265 ft | 284 kts | 222° |
| 2026-05-09 02:20 | 30.22165 | -9.68038 | 7888 ft | 286 kts | 216° |
| 2026-05-09 02:20 | 30.20217 | -9.68654 | 7643 ft | 322 kts | 177° |
| 2026-05-09 02:20 | 30.18699 | -9.66767 | 7281 ft | 357 kts | 98° |
| 2026-05-09 02:21 | 30.19310 | -9.64021 | 7222 ft | 365 kts | 55° |
| 2026-05-09 02:21 | 30.20915 | -9.61894 | 8245 ft | 331 kts | 44° |
| 2026-05-09 02:21 | 30.22435 | -9.60122 | 9701 ft | 304 kts | 41° |
| 2026-05-09 02:21 | 30.23980 | -9.58400 | 10040 ft | 311 kts | 40° |
| 2026-05-09 02:22 | 30.25540 | -9.56657 | 10480 ft | 313 kts | 41° |
| 2026-05-09 02:22 | 30.27069 | -9.54856 | 10929 ft | 315 kts | 43° |
| 2026-05-09 02:22 | 30.28541 | -9.52973 | 11378 ft | 317 kts | 45° |
| 2026-05-09 02:22 | 30.29899 | -9.50961 | 11823 ft | 319 kts | 51° |
| 2026-05-09 02:23 | 30.31021 | -9.48745 | 12270 ft | 321 kts | 60° |
| 2026-05-09 02:23 | 30.31834 | -9.46349 | 12718 ft | 321 kts | 70° |
| 2026-05-09 02:23 | 30.32324 | -9.43839 | 13168 ft | 321 kts | 79° |
| 2026-05-09 02:23 | 30.32730 | -9.41322 | 13610 ft | 319 kts | 72° |
| 2026-05-09 02:24 | 30.33632 | -9.39006 | 14067 ft | 314 kts | 58° |
| 2026-05-09 02:24 | 30.34862 | -9.36919 | 14506 ft | 316 kts | 49° |
| 2026-05-09 02:24 | 30.36289 | -9.34998 | 14957 ft | 318 kts | 44° |
| 2026-05-09 02:24 | 30.37873 | -9.33145 | 15419 ft | 329 kts | 40° |
| 2026-05-09 02:25 | 30.39612 | -9.31283 | 15887 ft | 345 kts | 38° |
| 2026-05-09 02:25 | 30.41448 | -9.29416 | 16347 ft | 359 kts | 37° |
| 2026-05-09 02:25 | 30.43366 | -9.27519 | 16802 ft | 365 kts | 37° |
| 2026-05-09 02:25 | 30.45303 | -9.25626 | 17251 ft | 365 kts | 36° |
| 2026-05-09 02:26 | 30.47247 | -9.23738 | 17700 ft | 367 kts | 36° |
| 2026-05-09 02:26 | 30.49204 | -9.21839 | 18150 ft | 369 kts | 36° |
| 2026-05-09 02:26 | 30.51169 | -9.19931 | 18599 ft | 370 kts | 36° |
| 2026-05-09 02:26 | 30.53134 | -9.18017 | 19048 ft | 370 kts | 36° |
| 2026-05-09 02:27 | 30.55109 | -9.16088 | 19498 ft | 371 kts | 36° |
| 2026-05-09 02:27 | 30.57102 | -9.14134 | 19953 ft | 371 kts | 36° |
| 2026-05-09 02:27 | 30.59047 | -9.12220 | 20397 ft | 372 kts | 37° |
| 2026-05-09 02:27 | 30.61033 | -9.10258 | 20850 ft | 372 kts | 37° |
| 2026-05-09 02:28 | 30.63001 | -9.08327 | 21298 ft | 375 kts | 36° |
| 2026-05-09 02:28 | 30.65028 | -9.06356 | 21754 ft | 382 kts | 36° |
| 2026-05-09 02:28 | 30.67083 | -9.04366 | 22208 ft | 390 kts | 36° |
| 2026-05-09 02:28 | 30.69179 | -9.02337 | 22662 ft | 395 kts | 36° |
| 2026-05-09 02:29 | 30.71295 | -9.00287 | 23114 ft | 400 kts | 36° |
| 2026-05-09 02:29 | 30.73436 | -8.98207 | 23566 ft | 404 kts | 36° |
| 2026-05-09 02:29 | 30.75622 | -8.96078 | 24023 ft | 407 kts | 36° |
| 2026-05-09 02:29 | 30.77760 | -8.93989 | 24467 ft | 410 kts | 37° |
| 2026-05-09 02:30 | 30.79977 | -8.91818 | 24925 ft | 413 kts | 37° |
| 2026-05-09 02:30 | 30.82169 | -8.89663 | 25375 ft | 415 kts | 37° |
| 2026-05-09 02:30 | 30.84369 | -8.87494 | 25825 ft | 416 kts | 37° |
| 2026-05-09 02:30 | 30.86574 | -8.85310 | 26275 ft | 417 kts | 37° |
| 2026-05-09 02:31 | 30.88781 | -8.83128 | 26723 ft | 418 kts | 37° |
| 2026-05-09 02:31 | 30.90994 | -8.80942 | 27172 ft | 418 kts | 37° |
| 2026-05-09 02:31 | 30.93208 | -8.78755 | 27621 ft | 418 kts | 37° |
| 2026-05-09 02:31 | 30.95423 | -8.76563 | 28070 ft | 418 kts | 37° |
| 2026-05-09 02:32 | 30.97633 | -8.74369 | 28518 ft | 418 kts | 37° |
| 2026-05-09 02:32 | 30.99866 | -8.72148 | 28972 ft | 417 kts | 37° |
| 2026-05-09 02:32 | 31.02066 | -8.69954 | 29420 ft | 416 kts | 37° |
| 2026-05-09 02:32 | 31.04257 | -8.67764 | 29868 ft | 415 kts | 37° |
| 2026-05-09 02:33 | 31.06440 | -8.65577 | 30316 ft | 414 kts | 37° |
| 2026-05-09 02:33 | 31.08607 | -8.63401 | 30762 ft | 412 kts | 37° |
| 2026-05-09 02:33 | 31.10771 | -8.61225 | 31210 ft | 410 kts | 37° |
| 2026-05-09 02:33 | 31.12918 | -8.59061 | 31657 ft | 408 kts | 37° |
| 2026-05-09 02:34 | 31.15073 | -8.56888 | 31881 ft | 413 kts | 37° |
| 2026-05-09 02:34 | 31.19489 | -8.52428 | 32000 ft | 429 kts | 37° |
| 2026-05-09 02:35 | 31.24096 | -8.47804 | 32004 ft | 445 kts | 37° |
| 2026-05-09 02:35 | 31.28859 | -8.43067 | 32002 ft | 455 kts | 37° |
| 2026-05-09 02:36 | 31.33714 | -8.38232 | 32000 ft | 457 kts | 37° |
| 2026-05-09 02:36 | 31.38527 | -8.33417 | 32000 ft | 456 kts | 37° |
| 2026-05-09 02:37 | 31.43334 | -8.28587 | 32000 ft | 456 kts | 37° |
| 2026-05-09 02:37 | 31.48144 | -8.23736 | 32001 ft | 459 kts | 38° |
| 2026-05-09 02:38 | 31.53004 | -8.18820 | 32001 ft | 466 kts | 38° |
| 2026-05-09 02:38 | 31.57929 | -8.13811 | 32001 ft | 473 kts | 38° |
| 2026-05-09 02:38 | 31.60608 | -8.11532 | 31995 ft | 470 kts | 24° |
| 2026-05-09 02:39 | 31.63671 | -8.10325 | 32001 ft | 463 kts | 7° |
| 2026-05-09 02:39 | 31.66851 | -8.10002 | 32005 ft | 459 kts | 356° |
| 2026-05-09 02:39 | 31.70022 | -8.10223 | 32004 ft | 457 kts | 350° |
| 2026-05-09 02:40 | 31.76248 | -8.11495 | 32001 ft | 454 kts | 344° |
| 2026-05-09 02:40 | 31.82380 | -8.13151 | 32000 ft | 453 kts | 343° |
| 2026-05-09 02:41 | 31.88520 | -8.14797 | 32000 ft | 454 kts | 344° |
| 2026-05-09 02:41 | 31.94742 | -8.16312 | 32000 ft | 455 kts | 345° |
| 2026-05-09 02:42 | 32.00965 | -8.17661 | 32000 ft | 456 kts | 346° |
| 2026-05-09 02:42 | 32.07205 | -8.18869 | 32000 ft | 456 kts | 347° |
| 2026-05-09 02:43 | 32.13526 | -8.19429 | 32001 ft | 460 kts | 356° |
| 2026-05-09 02:43 | 32.19987 | -8.18941 | 32002 ft | 463 kts | 2° |
| 2026-05-09 02:44 | 32.26381 | -8.17998 | 32001 ft | 464 kts | 4° |
| 2026-05-09 02:44 | 32.32755 | -8.16889 | 32000 ft | 464 kts | 5° |
| 2026-05-09 02:45 | 32.38925 | -8.15776 | 32000 ft | 464 kts | 5° |
| 2026-05-09 02:45 | 32.45333 | -8.14631 | 32000 ft | 464 kts | 5° |
| 2026-05-09 02:46 | 32.51700 | -8.13518 | 32000 ft | 463 kts | 5° |
| 2026-05-09 02:46 | 32.58068 | -8.12426 | 32000 ft | 463 kts | 4° |
| 2026-05-09 02:47 | 32.64434 | -8.11346 | 32000 ft | 463 kts | 4° |
| 2026-05-09 02:47 | 32.70806 | -8.10272 | 32000 ft | 463 kts | 4° |
| 2026-05-09 02:48 | 32.77172 | -8.09234 | 32000 ft | 463 kts | 4° |
| 2026-05-09 02:48 | 32.83550 | -8.08198 | 32000 ft | 463 kts | 4° |
| 2026-05-09 02:49 | 32.89922 | -8.07124 | 31998 ft | 464 kts | 6° |
| 2026-05-09 02:49 | 32.96152 | -8.04860 | 32002 ft | 470 kts | 18° |
| 2026-05-09 02:50 | 33.02064 | -8.01550 | 32002 ft | 473 kts | 24° |
| 2026-05-09 02:50 | 33.07713 | -7.97887 | 32001 ft | 474 kts | 26° |
| 2026-05-09 02:51 | 33.13426 | -7.93996 | 32000 ft | 473 kts | 26° |
| 2026-05-09 02:51 | 33.19111 | -7.90084 | 32000 ft | 473 kts | 26° |
| 2026-05-09 02:52 | 33.24837 | -7.86163 | 32000 ft | 472 kts | 26° |
| 2026-05-09 02:52 | 33.30538 | -7.82294 | 32000 ft | 472 kts | 26° |
| 2026-05-09 02:53 | 33.36250 | -7.78444 | 32000 ft | 472 kts | 26° |
| 2026-05-09 02:53 | 33.41972 | -7.74603 | 32000 ft | 472 kts | 26° |
| 2026-05-09 02:53 | 33.44806 | -7.72700 | 32299 ft | 465 kts | 26° |
| 2026-05-09 02:54 | 33.47602 | -7.70817 | 32696 ft | 458 kts | 26° |
| 2026-05-09 02:54 | 33.50368 | -7.68983 | 33095 ft | 454 kts | 25° |
| 2026-05-09 02:54 | 33.53144 | -7.67214 | 33496 ft | 451 kts | 24° |
| 2026-05-09 02:54 | 33.55952 | -7.65471 | 33600 ft | 454 kts | 24° |
| 2026-05-09 02:55 | 33.58765 | -7.63759 | 33100 ft | 470 kts | 23° |
| 2026-05-09 02:55 | 33.61754 | -7.61960 | 32643 ft | 473 kts | 23° |
| 2026-05-09 02:55 | 33.64681 | -7.60201 | 32220 ft | 469 kts | 23° |
| 2026-05-09 02:55 | 33.67571 | -7.58463 | 32078 ft | 464 kts | 23° |
| 2026-05-09 02:56 | 33.70458 | -7.56725 | 32013 ft | 464 kts | 23° |
| 2026-05-09 02:56 | 33.76232 | -7.53243 | 32000 ft | 466 kts | 23° |
| 2026-05-09 02:57 | 33.82066 | -7.49710 | 32000 ft | 469 kts | 23° |
| 2026-05-09 02:57 | 33.87884 | -7.46169 | 32000 ft | 470 kts | 23° |
| 2026-05-09 02:58 | 33.93708 | -7.42606 | 32000 ft | 471 kts | 24° |
| 2026-05-09 02:58 | 33.99535 | -7.39024 | 32000 ft | 471 kts | 24° |
| 2026-05-09 02:59 | 34.05353 | -7.35428 | 32000 ft | 471 kts | 24° |
| 2026-05-09 02:59 | 34.11174 | -7.31820 | 32000 ft | 471 kts | 24° |
| 2026-05-09 03:00 | 34.17007 | -7.28250 | 32000 ft | 471 kts | 23° |
| 2026-05-09 03:00 | 34.22849 | -7.24682 | 32000 ft | 471 kts | 23° |
| 2026-05-09 03:01 | 34.28724 | -7.21084 | 32000 ft | 471 kts | 23° |
| 2026-05-09 03:01 | 34.34549 | -7.17498 | 32000 ft | 471 kts | 24° |
| 2026-05-09 03:02 | 34.40376 | -7.13893 | 32000 ft | 471 kts | 24° |
| 2026-05-09 03:02 | 34.46197 | -7.10275 | 32000 ft | 471 kts | 24° |
| 2026-05-09 03:03 | 34.52019 | -7.06635 | 32000 ft | 471 kts | 24° |
| 2026-05-09 03:03 | 34.57865 | -7.02962 | 32000 ft | 471 kts | 24° |
| 2026-05-09 03:04 | 34.63697 | -6.99374 | 32000 ft | 471 kts | 23° |
| 2026-05-09 03:04 | 34.69544 | -6.95817 | 32000 ft | 471 kts | 23° |
| 2026-05-09 03:05 | 34.75396 | -6.92260 | 32000 ft | 471 kts | 23° |
| 2026-05-09 03:05 | 34.81237 | -6.88698 | 32000 ft | 471 kts | 23° |
| 2026-05-09 03:06 | 34.87085 | -6.85118 | 32000 ft | 471 kts | 23° |
| 2026-05-09 03:06 | 34.92877 | -6.81555 | 32471 ft | 461 kts | 23° |
| 2026-05-09 03:06 | 34.95724 | -6.79795 | 32782 ft | 458 kts | 23° |
| 2026-05-09 03:07 | 34.98589 | -6.78024 | 33087 ft | 457 kts | 23° |
| 2026-05-09 03:07 | 35.01417 | -6.76273 | 33386 ft | 456 kts | 23° |
| 2026-05-09 03:07 | 35.04231 | -6.74529 | 33684 ft | 454 kts | 23° |
| 2026-05-09 03:07 | 35.07038 | -6.72788 | 33982 ft | 452 kts | 23° |
| 2026-05-09 03:08 | 35.09834 | -6.71051 | 34280 ft | 451 kts | 23° |
| 2026-05-09 03:08 | 35.12620 | -6.69319 | 34579 ft | 449 kts | 23° |
| 2026-05-09 03:08 | 35.15398 | -6.67590 | 34796 ft | 450 kts | 23° |
| 2026-05-09 03:08 | 35.18191 | -6.65852 | 34918 ft | 453 kts | 23° |
| 2026-05-09 03:09 | 35.21007 | -6.64098 | 34984 ft | 457 kts | 23° |
| 2026-05-09 03:09 | 35.26718 | -6.60539 | 35002 ft | 466 kts | 24° |
| 2026-05-09 03:10 | 35.32519 | -6.56910 | 35001 ft | 472 kts | 24° |
| 2026-05-09 03:10 | 35.38358 | -6.53235 | 35000 ft | 474 kts | 24° |
| 2026-05-09 03:11 | 35.44200 | -6.49524 | 35000 ft | 473 kts | 24° |
| 2026-05-09 03:11 | 35.50023 | -6.45792 | 35000 ft | 472 kts | 24° |
| 2026-05-09 03:12 | 35.55821 | -6.42043 | 35000 ft | 472 kts | 24° |
| 2026-05-09 03:12 | 35.61610 | -6.38265 | 35000 ft | 472 kts | 25° |
| 2026-05-09 03:13 | 35.70302 | -6.32531 | 35000 ft | 472 kts | 25° |
| 2026-05-09 03:13 | 35.76079 | -6.28724 | 35000 ft | 472 kts | 25° |
| 2026-05-09 03:14 | 35.81863 | -6.24942 | 35000 ft | 472 kts | 24° |
| 2026-05-09 03:14 | 35.87663 | -6.21190 | 35000 ft | 472 kts | 24° |
| 2026-05-09 03:15 | 35.93462 | -6.17452 | 35000 ft | 471 kts | 24° |
| 2026-05-09 03:15 | 35.99268 | -6.13722 | 35000 ft | 471 kts | 24° |
| 2026-05-09 03:16 | 36.05074 | -6.09978 | 35000 ft | 471 kts | 24° |
| 2026-05-09 03:16 | 36.10871 | -6.06217 | 35000 ft | 472 kts | 24° |
| 2026-05-09 03:17 | 36.16660 | -6.02430 | 35000 ft | 472 kts | 24° |
| 2026-05-09 03:17 | 36.22499 | -5.98786 | 35000 ft | 469 kts | 18° |
| 2026-05-09 03:18 | 36.28754 | -5.96539 | 35001 ft | 465 kts | 8° |
| 2026-05-09 03:18 | 36.35091 | -5.95154 | 35000 ft | 463 kts | 5° |
| 2026-05-09 03:19 | 36.41459 | -5.94079 | 35000 ft | 462 kts | 4° |
| 2026-05-09 03:19 | 36.47829 | -5.93085 | 35000 ft | 462 kts | 3° |
| 2026-05-09 03:20 | 36.54202 | -5.92085 | 35000 ft | 463 kts | 4° |
| 2026-05-09 03:20 | 36.60577 | -5.91054 | 35000 ft | 463 kts | 4° |
| 2026-05-09 03:21 | 36.66950 | -5.89988 | 35000 ft | 463 kts | 4° |
| 2026-05-09 03:21 | 36.73325 | -5.88895 | 35000 ft | 463 kts | 4° |
| 2026-05-09 03:22 | 36.79693 | -5.87781 | 35000 ft | 463 kts | 4° |
| 2026-05-09 03:22 | 36.86065 | -5.86651 | 35000 ft | 463 kts | 4° |
| 2026-05-09 03:23 | 36.92437 | -5.85512 | 35000 ft | 463 kts | 4° |
| 2026-05-09 03:23 | 36.98805 | -5.84365 | 35000 ft | 463 kts | 4° |
| 2026-05-09 03:24 | 37.05174 | -5.83212 | 35000 ft | 463 kts | 4° |
| 2026-05-09 03:24 | 37.11542 | -5.82055 | 35000 ft | 463 kts | 4° |
| 2026-05-09 03:25 | 37.17914 | -5.80892 | 35000 ft | 463 kts | 5° |
| 2026-05-09 03:25 | 37.24321 | -5.79717 | 35000 ft | 463 kts | 5° |
| 2026-05-09 03:26 | 37.30686 | -5.78542 | 35000 ft | 463 kts | 5° |
| 2026-05-09 03:26 | 37.37058 | -5.77354 | 35000 ft | 463 kts | 5° |
| 2026-05-09 03:27 | 37.43352 | -5.75598 | 35001 ft | 467 kts | 14° |
| 2026-05-09 03:27 | 37.49438 | -5.72677 | 35002 ft | 470 kts | 19° |
| 2026-05-09 03:28 | 37.55391 | -5.69260 | 35001 ft | 472 kts | 22° |
| 2026-05-09 03:28 | 37.61288 | -5.65656 | 35000 ft | 472 kts | 22° |
| 2026-05-09 03:29 | 37.67064 | -5.62060 | 35000 ft | 472 kts | 23° |
| 2026-05-09 03:29 | 37.72930 | -5.58399 | 35000 ft | 471 kts | 23° |
| 2026-05-09 03:30 | 37.78797 | -5.54749 | 35000 ft | 471 kts | 22° |
| 2026-05-09 03:30 | 37.84670 | -5.51110 | 35000 ft | 471 kts | 22° |
| 2026-05-09 03:31 | 37.90544 | -5.47480 | 35000 ft | 471 kts | 22° |
| 2026-05-09 03:31 | 37.96421 | -5.43855 | 35000 ft | 471 kts | 22° |
| 2026-05-09 03:32 | 38.02340 | -5.40205 | 35000 ft | 471 kts | 22° |
| 2026-05-09 03:32 | 38.08218 | -5.36579 | 35000 ft | 471 kts | 22° |
| 2026-05-09 03:33 | 38.14098 | -5.32947 | 35000 ft | 471 kts | 22° |
| 2026-05-09 03:33 | 38.19974 | -5.29311 | 35000 ft | 471 kts | 22° |
| 2026-05-09 03:34 | 38.25851 | -5.25667 | 35000 ft | 471 kts | 22° |
| 2026-05-09 03:34 | 38.31725 | -5.22015 | 35000 ft | 471 kts | 22° |
| 2026-05-09 03:35 | 38.37600 | -5.18351 | 35000 ft | 471 kts | 22° |
| 2026-05-09 03:35 | 38.43468 | -5.14675 | 35000 ft | 471 kts | 22° |
| 2026-05-09 03:36 | 38.49346 | -5.11025 | 35000 ft | 470 kts | 21° |
| 2026-05-09 03:36 | 38.55331 | -5.07703 | 35000 ft | 469 kts | 19° |
| 2026-05-09 03:37 | 38.61365 | -5.04576 | 35000 ft | 469 kts | 18° |
| 2026-05-09 03:37 | 38.67418 | -5.01515 | 35000 ft | 469 kts | 18° |
| 2026-05-09 03:38 | 38.73476 | -4.98459 | 35000 ft | 469 kts | 18° |
| 2026-05-09 03:38 | 38.78564 | -4.95878 | 35000 ft | 469 kts | 18° |
| 2026-05-09 03:39 | 38.84611 | -4.92784 | 35000 ft | 469 kts | 18° |
| 2026-05-09 03:39 | 38.90657 | -4.89661 | 35000 ft | 469 kts | 18° |
| 2026-05-09 03:40 | 38.96691 | -4.86507 | 35000 ft | 469 kts | 19° |
| 2026-05-09 03:40 | 39.02729 | -4.83370 | 35000 ft | 469 kts | 18° |
| 2026-05-09 03:41 | 39.08777 | -4.80243 | 35000 ft | 469 kts | 18° |
| 2026-05-09 03:41 | 39.14816 | -4.77102 | 35000 ft | 469 kts | 18° |
| 2026-05-09 03:42 | 39.20859 | -4.73958 | 35000 ft | 469 kts | 18° |
| 2026-05-09 03:42 | 39.26908 | -4.70834 | 35000 ft | 469 kts | 18° |
| 2026-05-09 03:43 | 39.32955 | -4.67705 | 35000 ft | 469 kts | 18° |
| 2026-05-09 03:43 | 39.38711 | -4.64713 | 35000 ft | 469 kts | 18° |
| 2026-05-09 03:44 | 39.44751 | -4.61558 | 35000 ft | 469 kts | 18° |
| 2026-05-09 03:44 | 39.50833 | -4.58365 | 35000 ft | 469 kts | 18° |
| 2026-05-09 03:45 | 39.56869 | -4.55183 | 35000 ft | 469 kts | 19° |
| 2026-05-09 03:45 | 39.62899 | -4.51989 | 35000 ft | 469 kts | 19° |
| 2026-05-09 03:46 | 39.68931 | -4.48780 | 35000 ft | 469 kts | 19° |
| 2026-05-09 03:46 | 39.74958 | -4.45551 | 35000 ft | 469 kts | 19° |
| 2026-05-09 03:47 | 39.80987 | -4.42332 | 35000 ft | 469 kts | 19° |
| 2026-05-09 03:47 | 39.87017 | -4.39132 | 35000 ft | 469 kts | 19° |
| 2026-05-09 03:48 | 39.93048 | -4.35912 | 35000 ft | 469 kts | 19° |
| 2026-05-09 03:48 | 39.99040 | -4.32552 | 35000 ft | 470 kts | 20° |
| 2026-05-09 03:49 | 40.04994 | -4.29051 | 35000 ft | 470 kts | 21° |
| 2026-05-09 03:49 | 40.10926 | -4.25483 | 35000 ft | 471 kts | 21° |
| 2026-05-09 03:50 | 40.16850 | -4.21879 | 35000 ft | 471 kts | 21° |
| 2026-05-09 03:50 | 40.22807 | -4.18234 | 35000 ft | 471 kts | 21° |
| 2026-05-09 03:51 | 40.28724 | -4.14601 | 35000 ft | 471 kts | 21° |
| 2026-05-09 03:51 | 40.34635 | -4.10962 | 35000 ft | 471 kts | 21° |
| 2026-05-09 03:52 | 40.40546 | -4.07317 | 35000 ft | 471 kts | 21° |
| 2026-05-09 03:52 | 40.46461 | -4.03661 | 35000 ft | 471 kts | 21° |
| 2026-05-09 03:53 | 40.52367 | -4.00004 | 35000 ft | 471 kts | 22° |
| 2026-05-09 03:53 | 40.58274 | -3.96339 | 35000 ft | 471 kts | 22° |
| 2026-05-09 03:54 | 40.64184 | -3.92665 | 35000 ft | 471 kts | 22° |
| 2026-05-09 03:54 | 40.70089 | -3.88985 | 35000 ft | 471 kts | 22° |
| 2026-05-09 03:55 | 40.75995 | -3.85297 | 35000 ft | 471 kts | 22° |
| 2026-05-09 03:55 | 40.81898 | -3.81602 | 35000 ft | 471 kts | 22° |
| 2026-05-09 03:56 | 40.87801 | -3.77897 | 35000 ft | 471 kts | 22° |
| 2026-05-09 03:56 | 40.93737 | -3.74162 | 35000 ft | 471 kts | 22° |
| 2026-05-09 03:57 | 40.99638 | -3.70436 | 35000 ft | 471 kts | 22° |
| 2026-05-09 03:57 | 41.05533 | -3.66700 | 35000 ft | 471 kts | 22° |
| 2026-05-09 03:58 | 41.11421 | -3.62943 | 35000 ft | 471 kts | 22° |
| 2026-05-09 03:58 | 41.17370 | -3.59375 | 35000 ft | 470 kts | 20° |
| 2026-05-09 03:59 | 41.23376 | -3.56023 | 35000 ft | 469 kts | 19° |
| 2026-05-09 03:59 | 41.29409 | -3.52750 | 35000 ft | 469 kts | 18° |
| 2026-05-09 04:00 | 41.35443 | -3.49491 | 35000 ft | 469 kts | 18° |
| 2026-05-09 04:00 | 41.41473 | -3.46212 | 35000 ft | 469 kts | 19° |
| 2026-05-09 04:01 | 41.47498 | -3.42892 | 35000 ft | 469 kts | 19° |
| 2026-05-09 04:01 | 41.53522 | -3.39588 | 35000 ft | 469 kts | 19° |
| 2026-05-09 04:02 | 41.59557 | -3.36292 | 35000 ft | 469 kts | 19° |
| 2026-05-09 04:02 | 41.65627 | -3.32969 | 35000 ft | 469 kts | 19° |
| 2026-05-09 04:03 | 41.71654 | -3.29654 | 35000 ft | 469 kts | 19° |
| 2026-05-09 04:03 | 41.77674 | -3.26328 | 35000 ft | 469 kts | 19° |
| 2026-05-09 04:04 | 41.83700 | -3.22985 | 35000 ft | 469 kts | 19° |
| 2026-05-09 04:04 | 41.89718 | -3.19633 | 35000 ft | 469 kts | 19° |
| 2026-05-09 04:05 | 41.95740 | -3.16269 | 35000 ft | 469 kts | 19° |
| 2026-05-09 04:05 | 42.01753 | -3.12900 | 35000 ft | 469 kts | 19° |
| 2026-05-09 04:06 | 42.07769 | -3.09519 | 35000 ft | 469 kts | 19° |
| 2026-05-09 04:06 | 42.13783 | -3.06130 | 35000 ft | 469 kts | 19° |
| 2026-05-09 04:07 | 42.19795 | -3.02732 | 35000 ft | 470 kts | 19° |
| 2026-05-09 04:07 | 42.25846 | -2.99302 | 35000 ft | 470 kts | 19° |
| 2026-05-09 04:08 | 42.31856 | -2.95882 | 35000 ft | 470 kts | 19° |
| 2026-05-09 04:08 | 42.37864 | -2.92447 | 35000 ft | 470 kts | 19° |
| 2026-05-09 04:09 | 42.43844 | -2.88925 | 35000 ft | 470 kts | 21° |
| 2026-05-09 04:09 | 42.49699 | -2.84978 | 35001 ft | 472 kts | 24° |
| 2026-05-09 04:10 | 42.55474 | -2.80785 | 35000 ft | 472 kts | 25° |
| 2026-05-09 04:10 | 42.61212 | -2.76484 | 35000 ft | 472 kts | 26° |
| 2026-05-09 04:11 | 42.66938 | -2.72136 | 35000 ft | 472 kts | 26° |
| 2026-05-09 04:11 | 42.72654 | -2.67773 | 35000 ft | 472 kts | 26° |
| 2026-05-09 04:12 | 42.78371 | -2.63400 | 35000 ft | 472 kts | 26° |
| 2026-05-09 04:12 | 42.84085 | -2.59023 | 35000 ft | 472 kts | 26° |
| 2026-05-09 04:13 | 42.89837 | -2.54612 | 35000 ft | 472 kts | 26° |
| 2026-05-09 04:13 | 42.95547 | -2.50227 | 35000 ft | 472 kts | 26° |
| 2026-05-09 04:14 | 43.01262 | -2.45831 | 35000 ft | 472 kts | 26° |
| 2026-05-09 04:14 | 43.06971 | -2.41432 | 35000 ft | 472 kts | 26° |
| 2026-05-09 04:15 | 43.12681 | -2.37023 | 35000 ft | 472 kts | 26° |
| 2026-05-09 04:15 | 43.18386 | -2.32609 | 35000 ft | 472 kts | 26° |
| 2026-05-09 04:16 | 43.24096 | -2.28180 | 35000 ft | 472 kts | 26° |
| 2026-05-09 04:16 | 43.29801 | -2.23744 | 35000 ft | 472 kts | 26° |
| 2026-05-09 04:17 | 43.35500 | -2.19302 | 35000 ft | 472 kts | 26° |
| 2026-05-09 04:17 | 43.41202 | -2.14844 | 35000 ft | 472 kts | 26° |
| 2026-05-09 04:18 | 43.46899 | -2.10377 | 35000 ft | 472 kts | 26° |
| 2026-05-09 04:18 | 43.52592 | -2.05896 | 35000 ft | 472 kts | 26° |
| 2026-05-09 04:19 | 43.58276 | -2.01400 | 35000 ft | 472 kts | 26° |
| 2026-05-09 04:19 | 43.63987 | -1.96951 | 35000 ft | 472 kts | 25° |
| 2026-05-09 04:20 | 43.69831 | -1.92749 | 35000 ft | 471 kts | 23° |
| 2026-05-09 04:20 | 43.75676 | -1.88699 | 35000 ft | 471 kts | 23° |
| 2026-05-09 04:21 | 43.81532 | -1.84683 | 35000 ft | 471 kts | 23° |
| 2026-05-09 04:22 | 43.90320 | -1.78648 | 35000 ft | 471 kts | 23° |
| 2026-05-09 04:22 | 43.96173 | -1.74606 | 35000 ft | 471 kts | 23° |
| 2026-05-09 04:23 | 44.02022 | -1.70547 | 35000 ft | 471 kts | 23° |
| 2026-05-09 04:23 | 44.07872 | -1.66468 | 35000 ft | 471 kts | 23° |
| 2026-05-09 04:24 | 44.13714 | -1.62381 | 35000 ft | 471 kts | 23° |
| 2026-05-09 04:24 | 44.19592 | -1.58253 | 35000 ft | 471 kts | 23° |
| 2026-05-09 04:25 | 44.25433 | -1.54139 | 35000 ft | 471 kts | 23° |
| 2026-05-09 04:25 | 44.31269 | -1.50018 | 35000 ft | 471 kts | 23° |
| 2026-05-09 04:26 | 44.37105 | -1.45885 | 35000 ft | 471 kts | 23° |
| 2026-05-09 04:26 | 44.42938 | -1.41744 | 35000 ft | 471 kts | 23° |
| 2026-05-09 04:27 | 44.48770 | -1.37594 | 35000 ft | 471 kts | 24° |
| 2026-05-09 04:27 | 44.54600 | -1.33435 | 35000 ft | 471 kts | 24° |
| 2026-05-09 04:28 | 44.60428 | -1.29267 | 35000 ft | 471 kts | 24° |
| 2026-05-09 04:28 | 44.66257 | -1.25088 | 35000 ft | 471 kts | 24° |
| 2026-05-09 04:29 | 44.72079 | -1.20903 | 35000 ft | 471 kts | 24° |
| 2026-05-09 04:29 | 44.77903 | -1.16707 | 35000 ft | 471 kts | 24° |
| 2026-05-09 04:30 | 44.83725 | -1.12501 | 35000 ft | 471 kts | 24° |
| 2026-05-09 04:30 | 44.89547 | -1.08283 | 35000 ft | 471 kts | 24° |
| 2026-05-09 04:31 | 44.95366 | -1.04055 | 35000 ft | 471 kts | 24° |
| 2026-05-09 04:31 | 45.01179 | -0.99818 | 35000 ft | 471 kts | 24° |
| 2026-05-09 04:32 | 45.07029 | -0.95537 | 35000 ft | 471 kts | 24° |
| 2026-05-09 04:32 | 45.12836 | -0.91266 | 35000 ft | 471 kts | 24° |
| 2026-05-09 04:33 | 45.18631 | -0.86939 | 35000 ft | 472 kts | 25° |
| 2026-05-09 04:33 | 45.24376 | -0.82481 | 35000 ft | 472 kts | 26° |
| 2026-05-09 04:34 | 45.30099 | -0.77937 | 35000 ft | 472 kts | 26° |
| 2026-05-09 04:34 | 45.35805 | -0.73351 | 35000 ft | 472 kts | 26° |
| 2026-05-09 04:35 | 45.41505 | -0.68736 | 35000 ft | 472 kts | 26° |
| 2026-05-09 04:35 | 45.47197 | -0.64106 | 35000 ft | 472 kts | 26° |
| 2026-05-09 04:36 | 45.52888 | -0.59460 | 35000 ft | 472 kts | 26° |
| 2026-05-09 04:36 | 45.58578 | -0.54801 | 35000 ft | 472 kts | 26° |
| 2026-05-09 04:37 | 45.64262 | -0.50134 | 35000 ft | 472 kts | 26° |
| 2026-05-09 04:37 | 45.69948 | -0.45454 | 35000 ft | 472 kts | 26° |
| 2026-05-09 04:38 | 45.75667 | -0.40734 | 35000 ft | 472 kts | 26° |
| 2026-05-09 04:38 | 45.81346 | -0.36037 | 35000 ft | 472 kts | 27° |
| 2026-05-09 04:39 | 45.87025 | -0.31328 | 35000 ft | 472 kts | 27° |
| 2026-05-09 04:39 | 45.92700 | -0.26611 | 35000 ft | 472 kts | 27° |
| 2026-05-09 04:40 | 45.98373 | -0.21884 | 35000 ft | 472 kts | 27° |
| 2026-05-09 04:40 | 46.04046 | -0.17145 | 35000 ft | 472 kts | 27° |
| 2026-05-09 04:41 | 46.09714 | -0.12400 | 35000 ft | 472 kts | 27° |
| 2026-05-09 04:41 | 46.15387 | -0.07638 | 35000 ft | 472 kts | 27° |
| 2026-05-09 04:42 | 46.21053 | -0.02870 | 35000 ft | 472 kts | 27° |
| 2026-05-09 04:42 | 46.26717 | 0.01908 | 35000 ft | 472 kts | 27° |
| 2026-05-09 04:43 | 46.32416 | 0.06727 | 35000 ft | 472 kts | 27° |
| 2026-05-09 04:43 | 46.38076 | 0.11526 | 35000 ft | 472 kts | 27° |
| 2026-05-09 04:44 | 46.43734 | 0.16335 | 35000 ft | 472 kts | 27° |
| 2026-05-09 04:44 | 46.49394 | 0.21159 | 35000 ft | 473 kts | 27° |
| 2026-05-09 04:45 | 46.55049 | 0.25990 | 35000 ft | 473 kts | 27° |
| 2026-05-09 04:45 | 46.60700 | 0.30831 | 35000 ft | 473 kts | 27° |
| 2026-05-09 04:46 | 46.66349 | 0.35684 | 35000 ft | 473 kts | 27° |
| 2026-05-09 04:46 | 46.71996 | 0.40548 | 35000 ft | 473 kts | 27° |
| 2026-05-09 04:47 | 46.77641 | 0.45426 | 35000 ft | 473 kts | 27° |
| 2026-05-09 04:47 | 46.83286 | 0.50319 | 35000 ft | 473 kts | 27° |
| 2026-05-09 04:48 | 46.88922 | 0.55221 | 35000 ft | 473 kts | 27° |
| 2026-05-09 04:48 | 46.94557 | 0.60143 | 35000 ft | 473 kts | 27° |
| 2026-05-09 04:49 | 47.00186 | 0.65091 | 35000 ft | 473 kts | 28° |
| 2026-05-09 04:49 | 47.06141 | 0.69053 | 35002 ft | 466 kts | 12° |
| 2026-05-09 04:50 | 47.12471 | 0.70764 | 35001 ft | 462 kts | 3° |
| 2026-05-09 04:50 | 47.18853 | 0.71468 | 35000 ft | 460 kts | 359° |
| 2026-05-09 04:51 | 47.25239 | 0.71837 | 35000 ft | 460 kts | 358° |
| 2026-05-09 04:51 | 47.31621 | 0.72180 | 35000 ft | 460 kts | 358° |
| 2026-05-09 04:52 | 47.38009 | 0.72619 | 35000 ft | 461 kts | 359° |
| 2026-05-09 04:52 | 47.44404 | 0.73190 | 35000 ft | 461 kts | 0° |
| 2026-05-09 04:53 | 47.50766 | 0.74502 | 35001 ft | 465 kts | 8° |
| 2026-05-09 04:53 | 47.57028 | 0.76943 | 35001 ft | 468 kts | 13° |
| 2026-05-09 04:54 | 47.63220 | 0.79926 | 35001 ft | 469 kts | 15° |
| 2026-05-09 04:54 | 47.69366 | 0.83120 | 35000 ft | 469 kts | 16° |
| 2026-05-09 04:55 | 47.75535 | 0.86387 | 35000 ft | 468 kts | 16° |
| 2026-05-09 04:55 | 47.81666 | 0.89609 | 35000 ft | 468 kts | 15° |
| 2026-05-09 04:56 | 47.87814 | 0.92726 | 35000 ft | 468 kts | 15° |
| 2026-05-09 04:56 | 47.92953 | 0.95293 | 35000 ft | 468 kts | 15° |
| 2026-05-09 04:57 | 47.99107 | 0.98367 | 35000 ft | 468 kts | 15° |
| 2026-05-09 04:57 | 48.05261 | 1.01465 | 35000 ft | 468 kts | 15° |
| 2026-05-09 04:58 | 48.11416 | 1.04597 | 35000 ft | 468 kts | 15° |
| 2026-05-09 04:58 | 48.17554 | 1.07762 | 35000 ft | 468 kts | 15° |
| 2026-05-09 04:59 | 48.23707 | 1.10913 | 35000 ft | 468 kts | 15° |
| 2026-05-09 04:59 | 48.29857 | 1.14028 | 35000 ft | 468 kts | 15° |
| 2026-05-09 05:00 | 48.36011 | 1.17150 | 35000 ft | 468 kts | 15° |